createdAt,value
2023-04-06T00:00:35.434Z,-0.86
2023-04-06T00:03:02.237Z,-0.81
2023-04-06T00:05:31.522Z,-0.78
2023-04-06T00:08:01.410Z,-0.76
2023-04-06T00:10:28.220Z,-0.77
2023-04-06T00:12:57.604Z,-0.77
2023-04-06T00:15:24.265Z,-0.73
2023-04-06T00:17:51.121Z,-0.73
2023-04-06T00:20:18.232Z,-0.70
2023-04-06T00:22:45.772Z,-0.72
2023-04-06T00:25:12.527Z,-0.77
2023-04-06T00:27:39.719Z,-0.82
2023-04-06T00:30:06.936Z,-0.88
2023-04-06T00:32:33.722Z,-0.90
2023-04-06T00:35:00.374Z,-0.94
2023-04-06T00:37:27.004Z,-0.91
2023-04-06T00:39:53.642Z,-0.88
2023-04-06T00:42:26.573Z,-0.84
2023-04-06T00:44:54.602Z,-0.84
2023-04-06T00:47:22.340Z,-0.86
2023-04-06T00:49:49.453Z,-0.87
2023-04-06T00:52:16.901Z,-0.91
2023-04-06T00:54:43.482Z,-0.89
2023-04-06T00:57:10.849Z,-0.88
2023-04-06T00:59:37.577Z,-0.91
2023-04-06T01:02:04.545Z,-0.96
2023-04-06T01:04:31.567Z,-0.96
2023-04-06T01:06:58.186Z,-1.00
2023-04-06T01:09:24.809Z,-1.02
2023-04-06T01:11:51.415Z,-1.00
2023-04-06T01:14:18.036Z,-1.06
2023-04-06T01:16:44.756Z,-1.10
2023-04-06T01:19:12.992Z,-1.17
2023-04-06T01:21:40.496Z,-1.24
2023-04-06T01:24:08.089Z,-1.30
2023-04-06T01:26:36.075Z,-1.29
2023-04-06T01:29:04.193Z,-1.37
2023-04-06T01:31:31.039Z,-1.43
2023-04-06T01:33:57.861Z,-1.44
2023-04-06T01:36:24.447Z,-1.43
2023-04-06T01:38:51.216Z,-1.42
2023-04-06T01:41:17.798Z,-1.41
2023-04-06T01:43:46.398Z,-1.42
2023-04-06T01:46:12.989Z,-1.42
2023-04-06T01:48:39.620Z,-1.46
2023-04-06T01:51:06.216Z,-1.50
2023-04-06T01:53:32.800Z,-1.51
2023-04-06T01:55:59.365Z,-1.53
2023-04-06T01:58:26.533Z,-1.54
2023-04-06T02:00:53.197Z,-1.54
2023-04-06T02:03:19.975Z,-1.52
2023-04-06T02:05:47.347Z,-1.55
2023-04-06T02:08:13.961Z,-1.60
2023-04-06T02:10:40.801Z,-1.60
2023-04-06T02:13:07.418Z,-1.59
2023-04-06T02:15:34.013Z,-1.55
2023-04-06T02:18:01.205Z,-1.55
2023-04-06T02:20:27.976Z,-1.56
2023-04-06T02:22:54.553Z,-1.57
2023-04-06T02:25:21.223Z,-1.60
2023-04-06T02:27:47.854Z,-1.61
2023-04-06T02:30:14.458Z,-1.59
2023-04-06T02:32:41.248Z,-1.65
2023-04-06T02:35:08.247Z,-1.66
2023-04-06T02:37:34.873Z,-1.67
2023-04-06T02:40:01.509Z,-1.68
2023-04-06T02:42:28.113Z,-1.70
2023-04-06T02:44:54.748Z,-1.73
2023-04-06T02:47:21.566Z,-1.71
2023-04-06T02:49:50.523Z,-1.70
2023-04-06T02:52:18.887Z,-1.69
2023-04-06T02:54:45.490Z,-1.70
2023-04-06T02:57:12.284Z,-1.71
2023-04-06T02:59:39.205Z,-1.75
2023-04-06T03:02:06.170Z,-1.79
2023-04-06T03:04:32.798Z,-1.83
2023-04-06T03:07:01.285Z,-1.85
2023-04-06T03:09:28.560Z,-1.84
2023-04-06T03:11:55.164Z,-1.83
2023-04-06T03:14:23.256Z,-1.85
2023-04-06T03:16:50.745Z,-1.86
2023-04-06T03:19:17.360Z,-1.87
2023-04-06T03:21:44.017Z,-1.89
2023-04-06T03:24:10.653Z,-1.93
2023-04-06T03:26:37.221Z,-1.96
2023-04-06T03:29:03.847Z,-1.97
2023-04-06T03:31:30.657Z,-1.98
2023-04-06T03:33:57.433Z,-1.98
2023-04-06T03:36:24.008Z,-2.00
2023-04-06T03:38:50.953Z,-2.00
2023-04-06T03:41:17.628Z,-2.04
2023-04-06T03:43:44.305Z,-2.05
2023-04-06T03:46:10.985Z,-2.09
2023-04-06T03:48:37.680Z,-2.10
2023-04-06T03:51:04.437Z,-2.08
2023-04-06T03:53:31.128Z,-2.09
2023-04-06T03:55:57.730Z,-2.10
2023-04-06T03:58:24.365Z,-2.14
2023-04-06T04:00:50.999Z,-2.16
2023-04-06T04:03:17.743Z,-2.20
2023-04-06T04:05:44.562Z,-2.21
2023-04-06T04:08:11.505Z,-2.19
2023-04-06T04:10:38.085Z,-2.19
2023-04-06T04:13:04.653Z,-2.19
2023-04-06T04:15:31.238Z,-2.17
2023-04-06T04:17:57.858Z,-2.18
2023-04-06T04:20:24.581Z,-2.16
2023-04-06T04:22:51.212Z,-2.13
2023-04-06T04:25:17.812Z,-2.10
2023-04-06T04:27:44.384Z,-2.08
2023-04-06T04:30:11.476Z,-2.08
2023-04-06T04:32:38.108Z,-2.04
2023-04-06T04:35:04.845Z,-2.03
2023-04-06T04:37:31.732Z,-2.00
2023-04-06T04:39:58.331Z,-1.95
2023-04-06T04:42:24.957Z,-1.93
2023-04-06T04:44:51.558Z,-1.93
2023-04-06T04:47:18.244Z,-1.91
2023-04-06T04:49:44.848Z,-1.83
2023-04-06T04:52:11.461Z,-1.78
2023-04-06T04:54:38.786Z,-1.62
2023-04-06T04:57:05.376Z,-1.52
2023-04-06T04:59:32.164Z,-1.49
2023-04-06T05:01:58.831Z,-1.50
2023-04-06T05:04:25.404Z,-1.51
2023-04-06T05:06:52.091Z,-1.47
2023-04-06T05:09:18.817Z,-1.34
2023-04-06T05:11:45.487Z,-1.33
2023-04-06T05:14:12.131Z,-1.25
2023-04-06T05:16:38.766Z,-1.12
2023-04-06T05:19:05.378Z,-1.05
2023-04-06T05:21:32.809Z,-1.01
2023-04-06T05:23:59.719Z,-0.96
2023-04-06T05:26:26.450Z,-0.85
2023-04-06T05:28:53.082Z,-0.74
2023-04-06T05:31:19.742Z,-0.73
2023-04-06T05:33:46.442Z,-0.59
2023-04-06T05:36:14.988Z,-0.45
2023-04-06T05:38:41.967Z,-0.33
2023-04-06T05:41:08.748Z,-0.17
2023-04-06T05:43:35.514Z,0.08
2023-04-06T05:46:02.231Z,0.25
2023-04-06T05:48:28.898Z,0.43
2023-04-06T05:50:55.796Z,0.41
2023-04-06T05:53:22.546Z,0.59
2023-04-06T05:55:49.107Z,0.59
2023-04-06T05:58:15.942Z,0.67
2023-04-06T06:00:43.604Z,0.68
2023-04-06T06:03:11.022Z,0.73
2023-04-06T06:05:37.709Z,0.80
2023-04-06T06:08:04.424Z,0.96
2023-04-06T06:10:31.206Z,0.96
2023-04-06T06:12:57.825Z,0.96
2023-04-06T06:15:24.413Z,0.94
2023-04-06T06:17:51.037Z,0.96
2023-04-06T06:20:17.897Z,0.98
2023-04-06T06:22:44.517Z,1.00
2023-04-06T06:25:11.181Z,1.01
2023-04-06T06:27:38.003Z,1.00
2023-04-06T06:30:05.226Z,1.07
2023-04-06T06:32:33.633Z,1.15
2023-04-06T06:35:00.488Z,1.28
2023-04-06T06:37:28.206Z,1.38
2023-04-06T06:39:55.977Z,1.52
2023-04-06T06:42:22.585Z,1.69
2023-04-06T06:44:51.260Z,1.86
2023-04-06T06:47:17.905Z,2.01
2023-04-06T06:49:46.808Z,2.15
2023-04-06T06:52:13.387Z,2.39
2023-04-06T06:54:39.991Z,2.57
2023-04-06T06:57:06.789Z,2.78
2023-04-06T06:59:34.793Z,2.98
2023-04-06T07:02:01.582Z,3.14
2023-04-06T07:04:28.382Z,3.26
2023-04-06T07:06:54.998Z,3.40
2023-04-06T07:09:21.680Z,3.48
2023-04-06T07:11:49.102Z,3.59
2023-04-06T07:14:17.254Z,3.71
2023-04-06T07:16:46.219Z,3.84
2023-04-06T07:19:12.956Z,3.97
2023-04-06T07:21:39.559Z,4.10
2023-04-06T07:24:06.664Z,4.16
2023-04-06T07:26:33.654Z,4.25
2023-04-06T07:29:00.236Z,4.36
2023-04-06T07:31:26.945Z,4.43
2023-04-06T07:33:53.683Z,4.51
2023-04-06T07:36:21.384Z,4.62
2023-04-06T07:38:48.037Z,4.70
2023-04-06T07:41:14.665Z,4.77
2023-04-06T07:43:41.279Z,4.87
2023-04-06T07:46:08.220Z,4.93
2023-04-06T07:48:35.144Z,5.01
2023-04-06T07:51:06.068Z,5.05
2023-04-06T07:53:33.022Z,5.08
2023-04-06T07:56:00.370Z,5.14
2023-04-06T07:58:27.145Z,5.16
2023-04-06T08:00:53.917Z,5.17
2023-04-06T08:03:22.526Z,5.23
2023-04-06T08:05:49.252Z,5.33
2023-04-06T08:08:16.888Z,5.41
2023-04-06T08:10:43.518Z,5.47
2023-04-06T08:13:10.380Z,5.51
2023-04-06T08:15:37.100Z,5.60
2023-04-06T08:18:03.826Z,5.61
2023-04-06T08:20:30.868Z,5.67
2023-04-06T08:22:57.425Z,5.81
2023-04-06T08:25:24.241Z,5.88
2023-04-06T08:27:50.950Z,5.96
2023-04-06T08:30:17.675Z,6.04
2023-04-06T08:32:44.412Z,6.12
2023-04-06T08:35:11.131Z,6.24
2023-04-06T08:37:37.712Z,6.33
2023-04-06T08:40:05.215Z,6.45
2023-04-06T08:42:34.488Z,6.52
2023-04-06T08:45:01.762Z,6.63
2023-04-06T08:47:30.685Z,6.76
2023-04-06T08:49:58.175Z,6.82
2023-04-06T08:52:27.746Z,6.93
2023-04-06T08:54:54.448Z,6.96
2023-04-06T08:57:21.419Z,6.99
2023-04-06T08:59:48.871Z,7.07
2023-04-06T09:02:19.430Z,7.13
2023-04-06T09:04:50.897Z,7.19
2023-04-06T09:07:17.851Z,7.27
2023-04-06T09:09:48.817Z,7.43
2023-04-06T09:12:29.303Z,7.60
2023-04-06T09:14:57.352Z,7.69
2023-04-06T09:17:28.471Z,7.78
2023-04-06T09:19:56.112Z,7.86
2023-04-06T09:22:25.571Z,7.88
2023-04-06T09:24:54.739Z,7.95
2023-04-06T09:27:32.080Z,8.10
2023-04-06T09:30:06.646Z,8.21
2023-04-06T09:32:33.445Z,8.31
2023-04-06T09:35:10.033Z,8.43
2023-04-06T09:37:36.816Z,8.52
2023-04-06T09:40:06.334Z,8.62
2023-04-06T09:42:33.107Z,8.63
2023-04-06T09:44:59.783Z,8.62
2023-04-06T09:47:29.517Z,8.68
2023-04-06T09:50:00.650Z,8.76
2023-04-06T09:52:31.243Z,8.88
2023-04-06T09:55:02.473Z,8.94
2023-04-06T09:57:38.531Z,9.06
2023-04-06T10:00:12.303Z,9.24
2023-04-06T10:02:44.894Z,9.40
2023-04-06T10:05:51.751Z,9.61
2023-04-06T10:08:20.117Z,9.79
2023-04-06T10:10:48.211Z,10.00
2023-04-06T10:13:15.820Z,10.16
2023-04-06T10:15:43.514Z,10.26
2023-04-06T10:18:10.505Z,10.34
2023-04-06T10:20:43.436Z,10.35
2023-04-06T10:23:21.115Z,10.40
2023-04-06T10:25:58.214Z,10.40
2023-04-06T10:28:26.378Z,10.42
2023-04-06T10:31:00.616Z,10.54
2023-04-06T10:33:27.894Z,10.67
2023-04-06T10:35:56.679Z,10.75
2023-04-06T10:38:41.377Z,10.96
2023-04-06T10:41:12.659Z,10.92
2023-04-06T10:43:42.099Z,10.81
2023-04-06T10:46:10.724Z,10.66
2023-04-06T10:48:47.608Z,10.70
2023-04-06T10:51:16.839Z,10.87
2023-04-06T10:53:50.602Z,11.01
2023-04-06T10:56:18.926Z,11.06
2023-04-06T10:58:57.146Z,11.16
2023-04-06T11:01:26.056Z,11.15
2023-04-06T11:03:55.384Z,11.17
2023-04-06T11:06:23.772Z,11.08
2023-04-06T11:08:52.073Z,11.10
2023-04-06T11:11:21.849Z,11.15
2023-04-06T11:13:52.656Z,11.18
2023-04-06T11:16:22.112Z,11.22
2023-04-06T11:18:56.553Z,11.32
2023-04-06T11:21:44.328Z,11.43
2023-04-06T11:24:13.009Z,11.46
2023-04-06T11:26:46.909Z,11.46
2023-04-06T11:29:14.447Z,11.43
2023-04-06T11:31:48.385Z,11.47
2023-04-06T11:34:20.341Z,11.61
2023-04-06T11:36:48.807Z,11.78
2023-04-06T11:39:22.388Z,11.91
2023-04-06T11:41:50.762Z,11.99
2023-04-06T11:44:34.964Z,12.05
2023-04-06T11:47:05.946Z,12.10
2023-04-06T11:49:34.770Z,12.09
2023-04-06T11:52:02.139Z,12.04
2023-04-06T11:54:39.242Z,11.91
2023-04-06T11:57:06.545Z,11.84
2023-04-06T11:59:34.132Z,11.74
2023-04-06T12:02:02.542Z,11.73
2023-04-06T12:04:29.435Z,11.72
2023-04-06T12:06:56.687Z,11.62
2023-04-06T12:09:23.726Z,11.51
2023-04-06T12:11:50.907Z,11.39
2023-04-06T12:14:17.645Z,11.30
2023-04-06T12:16:44.814Z,11.17
2023-04-06T12:19:11.534Z,11.07
2023-04-06T12:21:38.461Z,10.94
2023-04-06T12:24:06.541Z,10.84
2023-04-06T12:26:33.736Z,10.75
2023-04-06T12:29:07.994Z,10.63
2023-04-06T12:31:42.007Z,10.48
2023-04-06T12:34:08.656Z,10.43
2023-04-06T12:36:35.474Z,10.32
2023-04-06T12:39:02.158Z,10.26
2023-04-06T12:41:29.420Z,10.25
2023-04-06T12:43:56.694Z,10.36
2023-04-06T12:46:24.341Z,10.41
2023-04-06T12:48:54.614Z,10.50
2023-04-06T12:51:21.520Z,10.66
2023-04-06T12:53:48.213Z,10.79
2023-04-06T12:56:17.927Z,10.68
2023-04-06T12:58:45.783Z,10.61
2023-04-06T13:01:15.591Z,10.55
2023-04-06T13:03:42.329Z,10.50
2023-04-06T13:06:09.717Z,10.34
2023-04-06T13:08:38.412Z,10.12
2023-04-06T13:11:05.996Z,9.99
2023-04-06T13:13:32.944Z,9.99
2023-04-06T13:16:08.353Z,9.83
2023-04-06T13:18:36.476Z,9.91
2023-04-06T13:21:03.280Z,9.97
2023-04-06T13:23:29.983Z,10.09
2023-04-06T13:26:05.864Z,10.16
2023-04-06T13:28:34.104Z,10.14
2023-04-06T13:31:02.396Z,10.14
2023-04-06T13:33:30.226Z,10.10
2023-04-06T13:35:57.157Z,10.07
2023-04-06T13:38:25.502Z,9.96
2023-04-06T13:40:52.579Z,9.86
2023-04-06T13:43:21.263Z,9.84
2023-04-06T13:45:56.484Z,9.83
2023-04-06T13:48:23.400Z,9.80
2023-04-06T13:50:50.263Z,9.76
2023-04-06T13:53:16.984Z,9.71
2023-04-06T13:55:43.834Z,9.68
2023-04-06T13:58:10.908Z,9.62
2023-04-06T14:00:37.986Z,9.58
2023-04-06T14:03:05.148Z,9.57
2023-04-06T14:05:33.579Z,9.55
2023-04-06T14:08:00.395Z,9.51
2023-04-06T14:10:28.798Z,9.49
2023-04-06T14:12:56.719Z,9.50
2023-04-06T14:15:24.856Z,9.56
2023-04-06T14:17:52.333Z,9.62
2023-04-06T14:20:20.154Z,9.64
2023-04-06T14:22:47.570Z,9.65
2023-04-06T14:25:14.506Z,9.57
2023-04-06T14:27:41.338Z,9.56
2023-04-06T14:30:09.232Z,9.56
2023-04-06T14:32:37.509Z,9.52
2023-04-06T14:35:07.385Z,9.51
2023-04-06T14:37:34.585Z,9.40
2023-04-06T14:40:01.329Z,9.20
2023-04-06T14:42:27.961Z,9.10
2023-04-06T14:44:54.770Z,8.98
2023-04-06T14:47:22.662Z,8.87
2023-04-06T14:49:52.935Z,8.77
2023-04-06T14:52:19.764Z,8.73
2023-04-06T14:54:49.077Z,8.64
2023-04-06T14:57:15.654Z,8.62
2023-04-06T14:59:42.257Z,8.59
2023-04-06T15:02:08.947Z,8.57
2023-04-06T15:04:37.289Z,8.46
2023-04-06T15:07:04.261Z,8.44
2023-04-06T15:09:31.461Z,8.41
2023-04-06T15:11:58.173Z,8.39
2023-04-06T15:14:24.837Z,8.36
2023-04-06T15:16:51.422Z,8.30
2023-04-06T15:19:18.091Z,8.22
2023-04-06T15:21:44.674Z,8.15
2023-04-06T15:24:11.392Z,8.01
2023-04-06T15:26:38.029Z,7.95
2023-04-06T15:29:04.766Z,7.88
2023-04-06T15:31:37.483Z,7.88
2023-04-06T15:34:09.340Z,7.88
2023-04-06T15:36:36.529Z,7.84
2023-04-06T15:39:04.887Z,7.82
2023-04-06T15:41:31.745Z,7.75
2023-04-06T15:43:58.840Z,7.70
2023-04-06T15:46:28.180Z,7.65
2023-04-06T15:48:56.100Z,7.57
2023-04-06T15:51:24.052Z,7.49
2023-04-06T15:53:50.796Z,7.49
2023-04-06T15:56:17.382Z,7.47
2023-04-06T15:58:44.156Z,7.44
2023-04-06T16:01:13.249Z,7.42
2023-04-06T16:03:40.032Z,7.41
2023-04-06T16:06:08.900Z,7.35
2023-04-06T16:08:36.974Z,7.27
2023-04-06T16:11:03.729Z,7.23
2023-04-06T16:13:30.912Z,7.23
2023-04-06T16:15:57.612Z,7.19
2023-04-06T16:18:24.533Z,7.15
2023-04-06T16:20:51.180Z,7.06
2023-04-06T16:23:17.755Z,7.03
2023-04-06T16:25:44.418Z,6.99
2023-04-06T16:28:11.188Z,6.93
2023-04-06T16:30:39.261Z,6.88
2023-04-06T16:33:06.313Z,6.85
2023-04-06T16:35:33.518Z,6.79
2023-04-06T16:38:03.108Z,6.71
2023-04-06T16:40:29.778Z,6.60
2023-04-06T16:42:56.370Z,6.55
2023-04-06T16:45:24.172Z,6.44
2023-04-06T16:47:50.954Z,6.36
2023-04-06T16:50:17.720Z,6.26
2023-04-06T16:52:44.708Z,6.15
2023-04-06T16:55:11.725Z,6.09
2023-04-06T16:57:38.578Z,6.05
2023-04-06T17:00:07.541Z,6.02
2023-04-06T17:02:36.474Z,5.95
2023-04-06T17:05:04.092Z,5.90
2023-04-06T17:07:33.074Z,5.86
2023-04-06T17:10:01.219Z,5.81
2023-04-06T17:12:29.063Z,5.72
2023-04-06T17:14:55.813Z,5.70
2023-04-06T17:17:22.778Z,5.66
2023-04-06T17:19:49.733Z,5.67
2023-04-06T17:22:20.716Z,5.58
2023-04-06T17:24:49.007Z,5.52
2023-04-06T17:27:16.284Z,5.44
2023-04-06T17:29:43.291Z,5.39
2023-04-06T17:32:10.882Z,5.29
2023-04-06T17:34:37.534Z,5.19
2023-04-06T17:37:04.085Z,5.16
2023-04-06T17:39:30.707Z,5.14
2023-04-06T17:41:58.014Z,5.08
2023-04-06T17:44:24.582Z,5.07
2023-04-06T17:46:51.312Z,5.01
2023-04-06T17:49:17.952Z,4.97
2023-04-06T17:51:45.173Z,4.95
2023-04-06T17:54:11.806Z,4.93
2023-04-06T17:56:38.458Z,4.89
2023-04-06T17:59:08.072Z,4.83
2023-04-06T18:01:35.164Z,4.77
2023-04-06T18:04:01.909Z,4.72
2023-04-06T18:06:28.676Z,4.69
2023-04-06T18:08:55.326Z,4.63
2023-04-06T18:11:22.064Z,4.65
2023-04-06T18:13:48.970Z,4.62
2023-04-06T18:16:17.612Z,4.57
2023-04-06T18:18:44.623Z,4.49
2023-04-06T18:21:11.471Z,4.40
2023-04-06T18:23:38.445Z,4.34
2023-04-06T18:26:05.920Z,4.29
2023-04-06T18:28:33.417Z,4.26
2023-04-06T18:31:00.657Z,4.23
2023-04-06T18:33:27.590Z,4.22
2023-04-06T18:35:56.598Z,4.21
2023-04-06T18:38:23.808Z,4.22
2023-04-06T18:40:50.523Z,4.20
2023-04-06T18:43:17.133Z,4.16
2023-04-06T18:45:44.078Z,4.15
2023-04-06T18:48:10.945Z,4.14
2023-04-06T18:50:37.526Z,4.13
2023-04-06T18:53:04.119Z,4.07
2023-04-06T18:55:34.189Z,4.07
2023-04-06T18:58:00.949Z,4.05
2023-04-06T19:00:27.626Z,4.06
2023-04-06T19:02:54.499Z,4.03
2023-04-06T19:05:22.387Z,4.05
2023-04-06T19:07:52.408Z,4.04
2023-04-06T19:10:19.888Z,4.06
2023-04-06T19:12:47.705Z,4.02
2023-04-06T19:15:14.645Z,4.01
2023-04-06T19:17:41.332Z,3.98
2023-04-06T19:20:09.173Z,3.95
2023-04-06T19:22:37.150Z,3.93
2023-04-06T19:25:06.354Z,3.91
2023-04-06T19:27:33.169Z,3.85
2023-04-06T19:30:00.604Z,3.80
2023-04-06T19:32:27.681Z,3.74
2023-04-06T19:34:54.350Z,3.73
2023-04-06T19:37:21.593Z,3.73
2023-04-06T19:39:48.201Z,3.70
2023-04-06T19:42:15.685Z,3.72
2023-04-06T19:44:42.357Z,3.68
2023-04-06T19:47:10.245Z,3.62
2023-04-06T19:49:38.056Z,3.61
2023-04-06T19:52:05.928Z,3.59
2023-04-06T19:54:32.483Z,3.56
2023-04-06T19:56:59.063Z,3.56
2023-04-06T19:59:25.737Z,3.55
2023-04-06T20:01:52.390Z,3.53
2023-04-06T20:04:19.166Z,3.53
2023-04-06T20:06:46.073Z,3.51
2023-04-06T20:09:15.138Z,3.50
2023-04-06T20:11:41.755Z,3.49
2023-04-06T20:14:08.967Z,3.47
2023-04-06T20:16:35.677Z,3.46
2023-04-06T20:19:02.448Z,3.45
2023-04-06T20:21:29.125Z,3.43
2023-04-06T20:23:55.811Z,3.43
2023-04-06T20:26:22.392Z,3.43
2023-04-06T20:28:49.015Z,3.42
2023-04-06T20:31:15.731Z,3.41
2023-04-06T20:33:42.630Z,3.41
2023-04-06T20:36:12.771Z,3.42
2023-04-06T20:38:42.837Z,3.40
2023-04-06T20:41:10.322Z,3.40
2023-04-06T20:43:37.018Z,3.38
2023-04-06T20:46:04.168Z,3.36
2023-04-06T20:48:33.391Z,3.34
2023-04-06T20:51:01.895Z,3.35
2023-04-06T20:53:28.487Z,3.36
2023-04-06T20:55:55.190Z,3.39
2023-04-06T20:58:21.926Z,3.41
2023-04-06T21:00:49.638Z,3.44
2023-04-06T21:03:19.733Z,3.44
2023-04-06T21:05:54.473Z,3.42
2023-04-06T21:08:21.307Z,3.42
2023-04-06T21:10:47.904Z,3.42
2023-04-06T21:13:14.528Z,3.39
2023-04-06T21:15:41.301Z,3.36
2023-04-06T21:18:08.089Z,3.36
2023-04-06T21:20:35.462Z,3.39
2023-04-06T21:23:02.053Z,3.33
2023-04-06T21:25:28.590Z,3.28
2023-04-06T21:27:56.939Z,3.27
2023-04-06T21:30:23.509Z,3.27
2023-04-06T21:32:50.176Z,3.29
2023-04-06T21:35:16.833Z,3.28
2023-04-06T21:37:43.423Z,3.24
2023-04-06T21:40:10.409Z,3.24
2023-04-06T21:42:37.073Z,3.26
2023-04-06T21:45:03.847Z,3.25
2023-04-06T21:47:30.483Z,3.25
2023-04-06T21:49:57.048Z,3.28
2023-04-06T21:52:23.606Z,3.30
2023-04-06T21:54:50.132Z,3.31
2023-04-06T21:57:16.719Z,3.32
2023-04-06T21:59:43.394Z,3.30
2023-04-06T22:02:10.088Z,3.29
2023-04-06T22:04:37.053Z,3.29
2023-04-06T22:07:03.943Z,3.29
2023-04-06T22:09:31.536Z,3.26
2023-04-06T22:11:58.098Z,3.27
2023-04-06T22:14:25.790Z,3.27
2023-04-06T22:16:52.349Z,3.32
2023-04-06T22:19:18.908Z,3.34
2023-04-06T22:21:45.567Z,3.33
2023-04-06T22:24:12.376Z,3.30
2023-04-06T22:26:39.039Z,3.25
2023-04-06T22:29:05.726Z,3.21
2023-04-06T22:31:32.347Z,3.21
2023-04-06T22:33:58.946Z,3.20
2023-04-06T22:36:26.751Z,3.21
2023-04-06T22:38:53.297Z,3.23
2023-04-06T22:41:19.877Z,3.24
2023-04-06T22:43:46.507Z,3.21
2023-04-06T22:46:13.102Z,3.20
2023-04-06T22:48:39.687Z,3.19
2023-04-06T22:51:06.324Z,3.17
2023-04-06T22:53:32.973Z,3.15
2023-04-06T22:55:59.600Z,3.10
2023-04-06T22:58:26.431Z,3.09
2023-04-06T23:00:53.022Z,3.11
2023-04-06T23:03:19.672Z,3.12
2023-04-06T23:05:47.655Z,3.11
2023-04-06T23:08:14.302Z,3.08
2023-04-06T23:10:42.168Z,3.08
2023-04-06T23:13:09.826Z,3.04
2023-04-06T23:15:37.981Z,3.03
2023-04-06T23:18:04.640Z,3.01
2023-04-06T23:20:31.472Z,3.01
2023-04-06T23:22:58.037Z,3.04
2023-04-06T23:25:24.656Z,3.04
2023-04-06T23:27:52.361Z,3.03
2023-04-06T23:30:18.919Z,3.04
2023-04-06T23:32:45.956Z,3.01
2023-04-06T23:35:12.664Z,3.00
2023-04-06T23:37:39.416Z,3.00
2023-04-06T23:40:06.686Z,2.95
2023-04-06T23:42:33.312Z,2.98
2023-04-06T23:44:59.878Z,3.00
2023-04-06T23:47:26.495Z,3.05
2023-04-06T23:49:53.389Z,3.11
2023-04-06T23:52:20.427Z,3.13
2023-04-06T23:54:46.997Z,3.18
2023-04-06T23:57:13.590Z,3.15
2023-04-06T23:59:40.171Z,3.14
